Weather at Dublin Airport

Public forecast

Using degrees Celsius for public forecast. Weather courtesy of forecast.io.

Current aviation weather report (METAR) for Dublin Airport

Retrieved 2021/07/29 00:00 UTC (17 minutes ago):

EIDW 290000Z 25012KT 9999 FEW016 SCT018 BKN050 11/09 Q1006 NOSIG

Aviation forecast (TAF) for Dublin Airport

Retrieved 2021-07-29 00:11 UTC (6 minutes ago):

TAF EIDW 282300Z 2900/2924 26013KT 9999 FEW017 SCT040 PROB30 TEMPO 2902/2905 26014G25KT TEMPO 2905/2913 27016G27KT BECMG 2913/2915 29011KT BECMG 2917/2919 29006KT